KFTG

Front Range Airport

Denver, Colorado, USA
METAR KFTG 230047Z 09009KT 10SM SCT110 BKN200 15/00 A3019
Observed Flight Rules
Oct-23 @ 00:47 UTC (an hour ago) Visual Flight Rules
Wind Visibility Clouds
90° at 9 knots 10 miles
  • Scattered at 11,000' AGL
  • Broken at 20,000' AGL
Temperatures Readings
Current 15°C / 59°F
Dewpoint 0°C / 32°F
Humidity 36%
Altimeter 30.19" Hg
Pressure 1022 hPa
Elevation 1675
METAR KFTG 230047Z 09009KT 10SM SCT110 BKN200 15/00 A3019
Observed Flight Rules
Oct-23 @ 00:47 UTC
(an hour ago)
VFR
Wind Visibility
90° at 9 knots 10 miles
Clouds
  • Scattered at 11,000' AGL
  • Broken at 20,000' AGL
Temperature Dewpoint
15°C / 59°F 0°C / 32°F
Humidity Altimeter Pressure
36% 30.19" Hg 1022 hPa